Time;durP1;ratioP1;P1;durP2;ratioP2;P2;SDS_P1;SDS_P2;PMS_P1;PMS_P2;Temp;Humidity;BMP_temperature;BMP_pressure;BME280_temperature;BME280_humidity;BME280_pressure;Samples;Min_cycle;Max_cycle;Signal;HPM_P1;HPM_P2
2022/04/24 00:00:33;;;;;;;8.20;6.78;;;;;;;7.55;71.98;100554.09;5093803;28;20032;-74
2022/04/24 00:02:59;;;;;;;10.90;7.10;;;;;;;7.51;72.21;100555.28;5076833;28;20049;-74
2022/04/24 00:05:24;;;;;;;10.27;7.32;;;;;;;7.46;72.75;100562.75;5076591;28;20065;-74
2022/04/24 00:07:49;;;;;;;7.38;6.25;;;;;;;7.46;72.93;100554.81;5094940;28;20071;-74
2022/04/24 00:10:15;;;;;;;12.73;6.38;;;;;;;7.51;71.83;100560.59;5093785;28;20036;-74
2022/04/24 00:12:40;;;;;;;8.88;6.80;;;;;;;7.58;71.88;100558.25;5094745;28;20115;-74
2022/04/24 00:15:06;;;;;;;7.05;6.28;;;;;;;7.55;71.96;100556.72;5095342;28;20097;-74
2022/04/24 00:17:31;;;;;;;12.93;6.53;;;;;;;7.61;71.48;100554.53;5095159;28;20036;-74
2022/04/24 00:19:57;;;;;;;7.13;6.10;;;;;;;7.59;71.44;100559.94;5094418;28;20024;-74
2022/04/24 00:22:22;;;;;;;8.25;6.00;;;;;;;7.66;71.22;100552.31;5075344;28;20080;-74
2022/04/24 00:24:48;;;;;;;8.07;6.47;;;;;;;7.66;71.69;100553.19;5093426;28;20040;-74
2022/04/24 00:27:13;;;;;;;7.20;6.30;;;;;;;7.66;71.41;100550.53;5058885;28;20388;-74
2022/04/24 00:29:39;;;;;;;8.40;6.85;;;;;;;7.67;71.66;100551.38;5075524;28;20119;-73
2022/04/24 00:32:05;;;;;;;8.68;6.22;;;;;;;7.65;71.85;100548.84;5093752;28;20032;-73
2022/04/24 00:34:30;;;;;;;7.50;6.13;;;;;;;7.65;71.61;100550.66;5092995;28;20155;-73
2022/04/24 00:36:56;;;;;;;7.70;6.90;;;;;;;7.65;72.06;100553.31;5093572;28;20051;-74
2022/04/24 00:39:21;;;;;;;6.95;6.25;;;;;;;7.59;72.27;100550.19;5093307;28;20047;-73
2022/04/24 00:41:51;;;;;;;11.40;6.85;;;;;;;7.65;71.80;100559.44;5093184;28;20055;-74
2022/04/24 00:44:18;;;;;;;7.95;6.70;;;;;;;7.71;71.29;100550.16;5092683;28;20062;-74
2022/04/24 00:47:04;;;;;;;7.15;6.45;;;;;;;7.75;70.83;100549.78;5092905;28;20073;-74
2022/04/24 00:49:30;;;;;;;10.45;6.90;;;;;;;7.74;71.31;100547.25;5093307;28;20085;-74
2022/04/24 00:51:56;;;;;;;6.75;6.05;;;;;;;7.71;71.36;100550.16;5093044;28;20027;-74
2022/04/24 00:54:22;;;;;;;6.70;6.00;;;;;;;7.68;71.41;100553.06;5092962;28;20036;-74
2022/04/24 00:56:47;;;;;;;7.13;6.43;;;;;;;7.72;70.98;100543.91;5093080;28;20031;-74
2022/04/24 00:59:14;;;;;;;10.32;6.75;;;;;;;7.71;71.49;100540.38;5092910;28;20064;-74
2022/04/24 01:01:41;;;;;;;7.20;6.45;;;;;;;7.75;70.90;100546.28;5092793;28;20028;-73
2022/04/24 01:04:07;;;;;;;7.70;6.72;;;;;;;7.73;71.09;100538.47;5092612;28;20068;-73
2022/04/24 01:06:41;;;;;;;8.55;6.85;;;;;;;7.69;71.49;100541.50;5092328;28;20028;-73
2022/04/24 01:09:21;;;;;;;10.07;7.13;;;;;;;7.64;71.72;100538.38;5093131;28;20032;-73
2022/04/24 01:11:48;;;;;;;9.73;7.55;;;;;;;7.61;71.82;100536.81;5092720;28;20058;-72
2022/04/24 01:14:17;;;;;;;8.30;7.18;;;;;;;7.61;72.36;100539.47;5092694;28;20085;-72
2022/04/24 01:16:43;;;;;;;8.13;7.07;;;;;;;7.61;72.24;100542.13;5092538;28;20031;-72
2022/04/24 01:19:09;;;;;;;9.20;7.97;;;;;;;7.67;72.88;100540.78;5092293;28;20035;-73
2022/04/24 01:21:35;;;;;;;13.38;8.57;;;;;;;7.65;72.63;100540.06;5092490;28;20118;-73
2022/04/24 01:24:03;;;;;;;9.50;8.30;;;;;;;7.60;73.04;100543.09;5092032;28;20474;-73
2022/04/24 01:26:29;;;;;;;9.38;7.85;;;;;;;7.63;73.58;100540.19;5073897;28;20024;-72
2022/04/24 01:28:54;;;;;;;11.48;8.82;;;;;;;7.69;73.82;100542.34;5074175;28;20328;-73
2022/04/24 01:31:20;;;;;;;10.90;8.88;;;;;;;7.68;73.40;100537.16;5092663;28;20444;-78
2022/04/24 01:33:45;;;;;;;10.43;8.98;;;;;;;7.68;73.73;100535.34;5092364;28;20028;-72
2022/04/24 01:36:11;;;;;;;10.60;9.50;;;;;;;7.65;74.20;100537.44;5092238;28;20032;-72
2022/04/24 01:38:36;;;;;;;12.88;9.50;;;;;;;7.62;74.87;100540.34;5092409;28;20034;-72
2022/04/24 01:41:02;;;;;;;10.40;9.30;;;;;;;7.64;74.54;100541.88;5092440;28;20040;-73
2022/04/24 01:43:28;;;;;;;11.75;9.63;;;;;;;7.63;74.67;100545.50;5073828;28;20048;-73
2022/04/24 01:45:53;;;;;;;14.20;9.60;;;;;;;7.65;75.29;100542.72;5073929;28;20032;-72
2022/04/24 01:48:20;;;;;;;17.80;9.30;;;;;;;7.59;75.20;100541.41;5091886;28;20028;-78
2022/04/24 01:50:45;;;;;;;12.60;9.52;;;;;;;7.61;75.37;100546.59;5091907;28;20036;-73
2022/04/24 01:53:11;;;;;;;12.75;10.27;;;;;;;7.72;75.50;100541.25;5092267;28;20097;-73
2022/04/24 01:55:36;;;;;;;12.18;10.27;;;;;;;7.79;75.35;100544.22;5091858;28;20039;-73
2022/04/24 01:58:02;;;;;;;14.48;10.63;;;;;;;7.82;75.08;100552.72;5091654;28;20424;-72
2022/04/24 02:00:28;;;;;;;14.23;10.43;;;;;;;7.88;74.79;100543.44;5091222;28;20081;-74
2022/04/24 02:02:54;;;;;;;13.88;10.07;;;;;;;7.86;75.15;100545.38;5074026;28;20095;-73
2022/04/24 02:05:19;;;;;;;11.52;10.32;;;;;;;7.84;75.33;100542.03;5091602;28;20475;-73
2022/04/24 02:07:44;;;;;;;19.10;10.85;;;;;;;7.86;75.58;100537.44;5091484;28;20425;-72
2022/04/24 02:10:10;;;;;;;14.65;11.02;;;;;;;7.83;75.72;100553.59;5091232;28;20032;-73
2022/04/24 02:12:40;;;;;;;19.08;10.98;;;;;;;7.92;75.85;100550.16;5091503;28;20028;-73
2022/04/24 02:15:08;;;;;;;13.07;10.48;;;;;;;7.85;75.67;100551.66;5091832;28;20036;-72
2022/04/24 02:17:34;;;;;;;17.80;10.50;;;;;;;7.86;75.70;100554.16;5091072;28;20028;-73
2022/04/24 02:20:00;;;;;;;11.93;10.23;;;;;;;7.82;75.90;100551.91;5091463;28;20036;-72
2022/04/24 02:22:31;;;;;;;14.60;11.07;;;;;;;7.82;76.44;100555.38;5073524;28;20475;-81
2022/04/24 02:24:57;;;;;;;15.00;11.85;;;;;;;7.82;76.41;100546.59;5073745;28;20028;-73
2022/04/24 02:27:22;;;;;;;14.13;10.90;;;;;;;7.79;76.80;100555.63;5073341;28;20422;-73
2022/04/24 02:29:47;;;;;;;12.20;10.30;;;;;;;7.70;76.80;100553.75;5073279;28;20063;-74
2022/04/24 02:32:12;;;;;;;13.32;10.95;;;;;;;7.67;77.78;100549.56;5091427;28;20054;-73
2022/04/24 02:34:38;;;;;;;15.05;11.38;;;;;;;7.59;77.84;100549.38;5072877;28;20032;-73
2022/04/24 02:37:04;;;;;;;13.70;11.63;;;;;;;7.58;78.47;100550.31;5091475;28;20436;-73
2022/04/24 02:39:29;;;;;;;13.80;11.13;;;;;;;7.56;78.60;100549.63;5091310;28;20080;-72
2022/04/24 02:41:54;;;;;;;15.20;12.38;;;;;;;7.49;79.08;100556.38;5091630;28;20028;-72
2022/04/24 02:44:20;;;;;;;14.18;12.10;;;;;;;7.43;79.94;100549.78;5091137;28;20080;-72
2022/04/24 02:46:45;;;;;;;12.23;10.93;;;;;;;7.39;80.56;100557.13;5091319;28;20032;-74
2022/04/24 02:49:11;;;;;;;18.08;11.43;;;;;;;7.47;80.05;100555.69;5095022;28;20531;-73
2022/04/24 02:51:36;;;;;;;14.52;11.77;;;;;;;7.43;80.37;100555.06;5095318;28;20092;-73
2022/04/24 02:54:01;;;;;;;13.70;11.38;;;;;;;7.44;80.60;100561.22;5094991;28;20409;-73
2022/04/24 02:56:27;;;;;;;14.52;11.57;;;;;;;7.40;80.76;100558.81;5077102;28;20044;-77
2022/04/24 02:58:52;;;;;;;15.75;11.73;;;;;;;7.43;80.52;100560.34;5094981;28;20039;-73
2022/04/24 03:01:18;;;;;;;13.65;11.35;;;;;;;7.38;81.01;100557.25;5094696;28;20039;-73
2022/04/24 03:03:45;;;;;;;14.85;11.30;;;;;;;7.41;80.82;100560.50;5094356;28;20170;-73
2022/04/24 03:06:11;;;;;;;14.07;11.07;;;;;;;7.41;80.43;100562.31;5076687;28;20069;-73
2022/04/24 03:08:37;;;;;;;17.30;10.95;;;;;;;7.37;80.40;100559.06;5076286;28;20141;-73
2022/04/24 03:11:02;;;;;;;14.65;10.65;;;;;;;7.41;80.91;100559.66;5094773;28;20094;-73
2022/04/24 03:13:27;;;;;;;13.80;11.30;;;;;;;7.35;80.58;100561.00;5094627;28;20432;-73
2022/04/24 03:15:52;;;;;;;13.00;10.85;;;;;;;7.29;81.01;100564.13;5094146;28;20051;-73
2022/04/24 03:18:18;;;;;;;13.98;10.10;;;;;;;7.24;80.68;100561.03;5076308;28;20111;-73
2022/04/24 03:20:44;;;;;;;19.73;10.88;;;;;;;7.21;81.00;100558.63;5094128;28;20064;-73
2022/04/24 03:23:10;;;;;;;14.25;10.45;;;;;;;7.15;81.66;100564.41;5094495;28;20099;-73
2022/04/24 03:25:35;;;;;;;15.02;11.05;;;;;;;7.15;81.59;100554.69;5076056;28;20063;-73
2022/04/24 03:28:01;;;;;;;12.40;10.80;;;;;;;7.13;81.64;100561.88;5094739;28;20028;-73
2022/04/24 03:30:26;;;;;;;17.63;11.40;;;;;;;7.13;81.50;100558.41;5094001;28;20032;-73
2022/04/24 03:32:52;;;;;;;13.80;10.10;;;;;;;7.10;81.38;100567.41;5094470;28;20028;-73
2022/04/24 03:35:17;;;;;;;14.82;10.25;;;;;;;7.10;80.75;100561.31;5094318;28;20495;-73
2022/04/24 03:37:43;;;;;;;12.75;10.40;;;;;;;7.11;81.12;100555.88;5094248;28;20036;-73
2022/04/24 03:40:09;;;;;;;16.30;10.43;;;;;;;7.15;80.89;100565.25;5094089;28;20035;-73
2022/04/24 03:42:35;;;;;;;15.27;10.57;;;;;;;7.05;80.97;100554.56;5093606;28;20150;-79
2022/04/24 03:45:02;;;;;;;15.68;10.35;;;;;;;6.99;81.24;100555.06;5094105;28;20085;-73
2022/04/24 03:47:27;;;;;;;12.98;9.82;;;;;;;6.91;81.57;100549.53;5093689;28;20456;-73
2022/04/24 03:49:53;;;;;;;12.63;10.23;;;;;;;6.82;81.92;100551.13;5093356;28;20081;-73
2022/04/24 03:52:18;;;;;;;13.20;9.90;;;;;;;6.73;82.29;100554.47;5093831;28;20134;-73
2022/04/24 03:54:44;;;;;;;15.57;10.05;;;;;;;6.64;82.94;100552.56;5093717;28;20035;-73
2022/04/24 03:57:09;;;;;;;12.60;9.75;;;;;;;6.58;83.26;100543.31;5093367;28;20334;-73
2022/04/24 03:59:35;;;;;;;13.15;9.98;;;;;;;6.53;83.75;100550.78;5092033;28;20089;-78
2022/04/24 04:02:02;;;;;;;13.90;10.02;;;;;;;6.45;84.03;100547.88;5093796;28;20032;-73
2022/04/24 04:04:28;;;;;;;17.52;10.43;;;;;;;6.38;83.73;100552.81;5093426;28;20032;-73
2022/04/24 04:06:54;;;;;;;15.70;10.27;;;;;;;6.40;84.32;100553.50;5093417;28;20088;-73
2022/04/24 04:09:19;;;;;;;18.67;10.30;;;;;;;6.35;84.48;100550.41;5075930;28;20521;-73
2022/04/24 04:11:45;;;;;;;14.35;9.93;;;;;;;6.38;84.33;100554.63;5093559;28;20024;-73
2022/04/24 04:14:10;;;;;;;13.30;9.65;;;;;;;6.48;84.30;100555.59;5093805;28;20035;-73
2022/04/24 04:16:35;;;;;;;19.38;10.15;;;;;;;6.48;84.18;100552.94;5093607;28;20168;-73
2022/04/24 04:19:01;;;;;;;15.07;10.27;;;;;;;6.46;84.42;100560.13;5093465;28;20043;-73
2022/04/24 04:21:28;;;;;;;11.75;9.32;;;;;;;6.42;84.57;100551.63;5095440;28;20055;-73
2022/04/24 04:23:54;;;;;;;13.88;9.75;;;;;;;6.44;84.13;100560.25;5096073;28;20097;-73
2022/04/24 04:26:19;;;;;;;18.92;9.43;;;;;;;6.44;84.06;100559.44;5094836;28;20040;-73
2022/04/24 04:28:45;;;;;;;10.60;9.50;;;;;;;6.38;84.04;100554.63;5075640;28;20119;-73
2022/04/24 04:31:12;;;;;;;12.02;10.00;;;;;;;6.31;84.27;100556.88;5094929;28;20024;-74
2022/04/24 04:33:37;;;;;;;14.70;9.32;;;;;;;6.27;85.12;100553.66;5095442;28;20032;-74
2022/04/24 04:36:02;;;;;;;14.57;9.40;;;;;;;6.29;85.38;100564.09;5095054;28;20036;-74
2022/04/24 04:38:28;;;;;;;16.50;9.15;;;;;;;6.32;84.96;100563.84;5095709;28;20040;-73
2022/04/24 04:40:53;;;;;;;12.63;9.45;;;;;;;6.28;85.51;100563.22;5094162;28;20465;-73
2022/04/24 04:43:19;;;;;;;13.98;9.90;;;;;;;6.27;85.52;100571.28;5093145;28;20059;-73
2022/04/24 04:45:44;;;;;;;12.07;9.40;;;;;;;6.22;85.10;100576.09;5074788;28;20590;-74
2022/04/24 04:48:12;;;;;;;12.60;9.70;;;;;;;6.17;85.43;100579.09;5074896;28;20115;-73
2022/04/24 04:50:37;;;;;;;12.23;9.07;;;;;;;6.17;85.65;100581.72;5094475;28;20111;-74
2022/04/24 04:53:02;;;;;;;14.50;10.00;;;;;;;6.16;85.77;100578.22;5094169;28;20229;-74
2022/04/24 04:55:28;;;;;;;13.02;9.80;;;;;;;6.15;85.40;100579.19;5093922;28;20494;-73
2022/04/24 04:57:54;;;;;;;12.48;9.60;;;;;;;6.16;85.53;100578.22;5094170;28;20043;-73
2022/04/24 05:00:20;;;;;;;13.18;9.07;;;;;;;6.22;85.63;100584.00;5093941;28;20043;-73
2022/04/24 05:02:45;;;;;;;13.20;8.70;;;;;;;6.28;85.68;100587.00;5093798;28;20115;-78
2022/04/24 05:05:10;;;;;;;13.98;8.75;;;;;;;6.33;85.28;100597.25;5094061;28;20089;-73
2022/04/24 05:07:36;;;;;;;10.98;9.23;;;;;;;6.43;85.13;100586.81;5093834;28;20032;-73
2022/04/24 05:10:03;;;;;;;12.07;9.15;;;;;;;6.54;84.63;100592.13;5093101;28;20028;-73
2022/04/24 05:12:30;;;;;;;16.75;9.45;;;;;;;6.61;84.14;100593.28;5093313;28;20545;-73
2022/04/24 05:15:10;;;;;;;12.25;8.50;;;;;;;6.69;83.77;100601.47;5075355;28;20056;-73
2022/04/24 05:17:36;;;;;;;11.95;8.25;;;;;;;6.79;83.40;100600.75;5094060;28;20020;-73
2022/04/24 05:20:06;;;;;;;9.68;8.27;;;;;;;6.86;83.05;100605.44;5093199;28;20411;-73
2022/04/24 05:22:31;;;;;;;13.40;8.45;;;;;;;6.95;83.06;100601.22;5075249;28;20490;-73
2022/04/24 05:24:56;;;;;;;10.93;8.18;;;;;;;7.03;82.30;100600.63;5093498;28;20074;-73
2022/04/24 05:27:22;;;;;;;9.80;8.00;;;;;;;7.13;82.26;100606.88;5093309;28;20586;-73
2022/04/24 05:29:48;;;;;;;10.50;7.60;;;;;;;7.25;82.02;100607.69;5093153;28;20395;-79
2022/04/24 05:32:13;;;;;;;10.35;7.72;;;;;;;7.30;81.41;100604.66;5075396;28;20118;-73
2022/04/24 05:34:39;;;;;;;13.90;7.45;;;;;;;7.34;81.30;100606.13;5093058;28;20088;-74
2022/04/24 05:37:05;;;;;;;12.77;7.75;;;;;;;7.41;80.88;100613.44;5093292;28;20039;-73
2022/04/24 05:39:30;;;;;;;10.13;7.93;;;;;;;7.50;80.64;100616.31;5093555;28;20429;-72
2022/04/24 05:41:56;;;;;;;8.68;7.15;;;;;;;7.57;79.54;100614.84;5093116;28;20528;-75
2022/04/24 05:44:21;;;;;;;12.95;7.43;;;;;;;7.63;79.31;100622.28;5093775;28;20059;-72
2022/04/24 05:46:47;;;;;;;9.40;7.43;;;;;;;7.71;79.49;100621.66;5093424;28;20028;-74
2022/04/24 05:49:12;;;;;;;8.70;7.43;;;;;;;7.79;79.57;100619.19;5093498;28;20081;-73
2022/04/24 05:51:37;;;;;;;9.02;7.70;;;;;;;7.86;78.92;100623.03;5093066;28;20032;-73
2022/04/24 05:54:03;;;;;;;8.18;7.38;;;;;;;7.96;78.61;100628.44;5092840;28;20494;-73
2022/04/24 05:56:28;;;;;;;10.00;6.82;;;;;;;8.03;77.97;100626.97;5092763;28;20032;-73
2022/04/24 05:58:54;;;;;;;17.25;7.32;;;;;;;8.09;77.54;100623.78;5092331;28;20039;-74
2022/04/24 06:01:19;;;;;;;7.50;6.65;;;;;;;8.16;77.65;100632.06;5074597;28;20020;-73
2022/04/24 06:03:44;;;;;;;11.43;7.22;;;;;;;8.24;77.97;100632.25;5092923;28;20055;-73
2022/04/24 06:06:10;;;;;;;11.02;7.28;;;;;;;8.30;77.41;100629.09;5074579;28;20032;-73
2022/04/24 06:08:36;;;;;;;11.50;7.18;;;;;;;8.39;77.04;100629.28;5092639;28;20376;-73
2022/04/24 06:11:01;;;;;;;10.52;7.10;;;;;;;8.50;76.51;100631.06;5092630;28;20480;-75
2022/04/24 06:13:27;;;;;;;9.30;7.05;;;;;;;8.60;76.11;100629.31;5092678;28;20073;-73
2022/04/24 06:15:57;;;;;;;13.65;7.90;;;;;;;8.70;76.53;100634.66;5092533;28;20031;-79
2022/04/24 06:18:23;;;;;;;8.30;7.13;;;;;;;8.78;76.47;100635.69;5092551;28;20099;-73
2022/04/24 06:20:48;;;;;;;13.00;7.45;;;;;;;8.88;76.47;100632.22;5093104;28;20032;-72
2022/04/24 06:23:13;;;;;;;9.02;7.03;;;;;;;8.99;75.61;100637.44;5077150;28;20451;-73
2022/04/24 06:25:39;;;;;;;10.82;7.75;;;;;;;9.11;75.68;100643.50;5096587;28;20035;-73
2022/04/24 06:28:04;;;;;;;8.95;6.65;;;;;;;9.21;74.99;100649.69;5078028;28;20118;-73
2022/04/24 06:30:31;;;;;;;8.98;6.85;;;;;;;9.32;74.60;100644.25;5096488;28;20046;-72
2022/04/24 06:32:58;;;;;;;14.13;9.30;;;;;;;9.43;73.29;100642.47;5096352;28;20039;-74
2022/04/24 06:35:24;;;;;;;8.60;6.72;;;;;;;9.52;73.14;100650.47;5096591;28;20032;-72
2022/04/24 06:37:55;;;;;;;9.70;6.68;;;;;;;9.60;70.93;100646.25;5096162;28;20039;-72
2022/04/24 06:40:23;;;;;;;10.00;6.43;;;;;;;9.72;70.67;100650.50;5096841;28;20059;-72
2022/04/24 06:42:52;;;;;;;9.15;7.05;;;;;;;9.82;70.88;100650.47;5096322;28;20040;-72
2022/04/24 06:45:24;;;;;;;8.07;6.75;;;;;;;9.92;70.87;100661.13;5078536;28;20020;-72
2022/04/24 06:47:50;;;;;;;9.55;6.90;;;;;;;10.00;69.63;100659.47;5078521;28;20039;-72
2022/04/24 06:50:16;;;;;;;9.80;6.28;;;;;;;10.09;69.10;100649.81;5096710;28;20036;-72
2022/04/24 06:52:41;;;;;;;8.57;6.43;;;;;;;10.20;69.58;100654.13;5096464;28;20062;-72
2022/04/24 06:55:07;;;;;;;11.80;6.65;;;;;;;10.26;68.29;100655.41;5096024;28;20073;-72
2022/04/24 06:57:33;;;;;;;6.78;6.07;;;;;;;10.35;68.04;100651.91;5077997;28;20078;-73
2022/04/24 06:59:58;;;;;;;11.85;6.43;;;;;;;10.45;67.16;100659.88;5096506;28;20032;-77
2022/04/24 07:02:24;;;;;;;7.97;6.53;;;;;;;10.51;68.40;100657.50;5077791;28;20464;-72
2022/04/24 07:04:49;;;;;;;7.15;6.32;;;;;;;10.59;67.42;100662.09;5095800;28;20361;-72
2022/04/24 07:07:14;;;;;;;7.57;6.55;;;;;;;10.68;66.42;100663.88;5095736;28;20059;-72
2022/04/24 07:09:40;;;;;;;7.88;5.85;;;;;;;10.83;65.76;100666.09;5096057;28;20044;-72
2022/04/24 07:12:05;;;;;;;9.35;5.93;;;;;;;10.90;65.44;100665.34;5095891;28;20028;-72
2022/04/24 07:14:31;;;;;;;9.77;6.20;;;;;;;11.02;65.45;100666.03;5095471;28;20043;-72
2022/04/24 07:16:56;;;;;;;7.68;6.10;;;;;;;11.07;65.21;100666.41;5095474;28;20443;-72
2022/04/24 07:19:21;;;;;;;8.30;6.32;;;;;;;11.16;64.95;100663.88;5095857;28;20362;-72
2022/04/24 07:21:49;;;;;;;8.48;6.35;;;;;;;11.27;64.22;100659.19;5077698;28;20032;-72
2022/04/24 07:24:14;;;;;;;10.63;6.22;;;;;;;11.47;64.78;100662.56;5095443;28;20067;-70
2022/04/24 07:26:39;;;;;;;8.43;6.50;;;;;;;11.64;62.75;100666.28;5095657;28;20060;-71
2022/04/24 07:29:05;;;;;;;8.05;6.55;;;;;;;11.75;64.09;100672.38;5095278;28;20024;-72
2022/04/24 07:31:30;;;;;;;10.02;6.20;;;;;;;11.95;63.93;100673.09;5095817;28;20456;-72
2022/04/24 07:33:56;;;;;;;8.50;6.80;;;;;;;12.10;62.52;100670.72;5094941;28;20039;-72
2022/04/24 07:36:22;;;;;;;7.00;6.00;;;;;;;12.24;61.89;100672.88;5095284;28;20036;-73
2022/04/24 07:38:50;;;;;;;9.02;6.00;;;;;;;12.35;59.97;100669.94;5095822;28;20191;-73
2022/04/24 07:41:15;;;;;;;9.13;6.00;;;;;;;12.48;60.26;100663.34;5095172;28;20024;-72
2022/04/24 07:43:48;;;;;;;7.07;5.80;;;;;;;12.62;59.56;100665.47;5095014;28;20048;-72
2022/04/24 07:46:13;;;;;;;7.18;5.95;;;;;;;12.67;59.37;100673.84;5095107;28;20040;-73
2022/04/24 07:48:39;;;;;;;7.32;5.93;;;;;;;12.79;56.64;100669.06;5076736;28;20047;-72
2022/04/24 07:51:04;;;;;;;7.35;6.13;;;;;;;12.83;57.56;100673.09;5095043;28;20490;-81
2022/04/24 07:53:30;;;;;;;7.35;6.10;;;;;;;12.98;58.59;100670.69;5095353;28;20080;-76
2022/04/24 07:55:55;;;;;;;6.90;6.18;;;;;;;13.08;57.16;100673.25;5094895;28;20028;-75
2022/04/24 07:58:20;;;;;;;7.32;5.93;;;;;;;13.19;57.54;100680.97;5076650;28;20361;-75
2022/04/24 08:00:47;;;;;;;8.55;5.72;;;;;;;13.14;55.79;100669.94;5094830;28;20067;-74
2022/04/24 08:03:14;;;;;;;9.18;5.90;;;;;;;13.48;57.18;100685.13;5094538;28;20040;-75
2022/04/24 08:05:43;;;;;;;6.55;5.95;;;;;;;13.90;55.89;100684.22;5094690;28;20050;-75
2022/04/24 08:08:11;;;;;;;7.75;6.47;;;;;;;14.19;53.63;100693.63;5094757;28;20027;-76
2022/04/24 08:10:39;;;;;;;8.10;6.25;;;;;;;14.42;53.89;100696.47;5094642;28;20039;-77
2022/04/24 08:13:05;;;;;;;8.55;6.22;;;;;;;14.63;52.26;100692.47;5094480;28;20028;-75
2022/04/24 08:15:35;;;;;;;9.13;5.60;;;;;;;14.78;52.17;100690.78;5094577;28;20084;-74
2022/04/24 08:18:02;;;;;;;9.85;5.70;;;;;;;15.03;50.41;100703.28;5094557;28;20035;-74
2022/04/24 08:20:28;;;;;;;7.50;5.78;;;;;;;15.45;49.17;100689.56;5094333;28;20095;-74
2022/04/24 08:22:54;;;;;;;10.07;6.22;;;;;;;15.79;48.81;100703.66;5094269;28;20051;-75
2022/04/24 08:25:24;;;;;;;6.95;6.25;;;;;;;15.73;47.89;100702.47;5094404;28;20032;-75
2022/04/24 08:27:51;;;;;;;11.27;6.07;;;;;;;16.22;48.13;100702.19;5075956;28;20379;-75
2022/04/24 08:30:17;;;;;;;6.20;5.47;;;;;;;16.26;46.99;100701.81;5076088;28;20089;-75
2022/04/24 08:32:43;;;;;;;11.95;6.47;;;;;;;16.70;46.12;100699.25;5094184;28;20473;-76
2022/04/24 08:35:12;;;;;;;6.70;6.00;;;;;;;16.80;44.70;100700.88;5094289;28;20077;-79
2022/04/24 08:37:37;;;;;;;9.52;5.60;;;;;;;16.54;46.04;100710.16;5093857;28;20074;-76
2022/04/24 08:40:06;;;;;;;8.73;5.47;;;;;;;16.60;46.22;100706.75;5094094;28;20472;-74
2022/04/24 08:42:32;;;;;;;6.72;5.82;;;;;;;15.90;45.37;100714.00;5093607;28;20047;-76
2022/04/24 08:44:58;;;;;;;6.88;5.47;;;;;;;16.08;46.92;100708.34;5093276;28;20146;-72
2022/04/24 08:47:25;;;;;;;7.47;5.25;;;;;;;16.00;47.27;100716.44;5076486;28;20070;-72
2022/04/24 08:50:00;;;;;;;9.88;6.15;;;;;;;15.99;46.79;100712.94;5094374;28;20031;-75
2022/04/24 08:52:27;;;;;;;10.50;6.18;;;;;;;16.09;47.55;100723.41;5094419;28;20110;-77
2022/04/24 08:54:54;;;;;;;8.15;6.20;;;;;;;16.66;45.13;100716.78;5094310;28;20027;-77
2022/04/24 08:57:26;;;;;;;8.57;5.50;;;;;;;17.18;44.67;100717.78;5094033;28;20036;-77
2022/04/24 08:59:51;;;;;;;9.60;5.53;;;;;;;17.51;44.23;100721.91;5097794;28;20097;-76
2022/04/24 09:02:17;;;;;;;6.20;5.60;;;;;;;18.07;43.02;100718.69;5095042;28;20029;-75
2022/04/24 09:04:42;;;;;;;10.73;5.53;;;;;;;18.71;40.58;100730.44;5094506;28;20476;-76
2022/04/24 09:07:10;;;;;;;8.00;5.95;;;;;;;19.03;39.67;100720.94;5094233;28;20036;-75
2022/04/24 09:09:44;;;;;;;6.22;5.60;;;;;;;20.18;37.88;100717.69;5075676;28;20119;-76
2022/04/24 09:12:10;;;;;;;9.52;5.50;;;;;;;21.40;34.62;100718.22;5094071;28;20480;-75
2022/04/24 09:14:36;;;;;;;8.63;5.70;;;;;;;22.25;34.46;100713.63;5093660;28;20022;-76
2022/04/24 09:17:24;;;;;;;10.13;5.60;;;;;;;21.88;33.43;100713.44;5093209;28;20084;-78
2022/04/24 09:19:50;;;;;;;5.78;5.18;;;;;;;21.76;33.89;100714.13;5093216;28;20468;-80
2022/04/24 09:22:17;;;;;;;6.75;5.50;;;;;;;22.04;32.81;100723.78;5093224;28;20028;-77
2022/04/24 09:24:49;;;;;;;5.75;4.80;;;;;;;23.10;32.16;100725.88;5092678;28;20042;-75
2022/04/24 09:27:32;;;;;;;5.50;5.00;;;;;;;23.01;31.27;100726.13;5092921;28;20578;-77
2022/04/24 09:30:01;;;;;;;5.88;4.80;;;;;;;23.24;30.44;100722.81;5093113;28;20093;-75
2022/04/24 09:32:29;;;;;;;6.68;5.25;;;;;;;23.45;30.57;100725.28;5092958;28;20027;-75
2022/04/24 09:34:55;;;;;;;9.20;6.80;;;;;;;24.06;29.91;100726.16;5093334;28;20081;-74
2022/04/24 09:37:21;;;;;;;7.90;6.30;;;;;;;24.44;28.98;100733.94;5092886;28;20131;-73
2022/04/24 09:39:49;;;;;;;8.25;6.32;;;;;;;24.03;31.45;100732.06;5092497;28;20047;-73
2022/04/24 09:42:17;;;;;;;7.95;5.80;;;;;;;23.96;29.62;100724.03;5092672;28;20512;-73
2022/04/24 09:44:50;;;;;;;6.30;5.30;;;;;;;24.49;29.53;100730.50;5092508;28;20113;-73
2022/04/24 09:47:23;;;;;;;9.25;5.50;;;;;;;24.12;29.84;100730.66;5093141;28;20089;-72
2022/04/24 09:49:50;;;;;;;7.90;5.90;;;;;;;23.87;30.85;100737.09;5074781;28;20048;-74
2022/04/24 09:52:18;;;;;;;6.97;5.15;;;;;;;24.23;28.49;100729.88;5092792;28;20024;-74
2022/04/24 09:54:45;;;;;;;8.40;5.18;;;;;;;23.34;32.26;100733.13;5092404;28;20118;-73
2022/04/24 09:57:12;;;;;;;6.80;5.20;;;;;;;23.88;29.13;100736.00;5092625;28;20093;-73
2022/04/24 09:59:39;;;;;;;6.90;5.32;;;;;;;24.07;28.71;100734.09;5092241;28;20036;-76
2022/04/24 10:02:06;;;;;;;9.77;5.10;;;;;;;24.42;29.64;100732.50;5093098;28;20063;-75
2022/04/24 10:04:35;;;;;;;6.65;5.07;;;;;;;24.55;30.04;100726.84;5091987;28;20044;-75
2022/04/24 10:07:04;;;;;;;14.05;5.20;;;;;;;24.52;28.16;100731.94;5092715;28;20032;-73
2022/04/24 10:09:30;;;;;;;8.85;4.97;;;;;;;24.21;29.68;100731.97;5092612;28;20039;-74
2022/04/24 10:12:01;;;;;;;6.72;5.30;;;;;;;23.91;29.62;100732.84;5092695;28;20035;-73
2022/04/24 10:14:27;;;;;;;8.13;4.88;;;;;;;24.60;28.03;100727.03;5092918;28;20032;-72
2022/04/24 10:17:10;;;;;;;6.88;5.10;;;;;;;24.97;27.93;100728.66;5092804;28;20028;-75
2022/04/24 10:19:48;;;;;;;6.45;5.22;;;;;;;24.84;28.08;100734.34;5092544;28;20039;-73
2022/04/24 10:22:18;;;;;;;8.20;5.50;;;;;;;23.98;30.83;100729.22;5092776;28;20114;-74
2022/04/24 10:24:44;;;;;;;10.50;6.80;;;;;;;24.88;29.12;100730.09;5092509;28;20035;-74
2022/04/24 10:27:12;;;;;;;6.40;5.30;;;;;;;24.66;28.22;100727.94;5092397;28;20055;-75
2022/04/24 10:29:50;;;;;;;6.03;5.38;;;;;;;24.56;30.32;100739.41;5074595;28;20066;-73
2022/04/24 10:32:36;;;;;;;6.07;5.38;;;;;;;25.11;27.65;100734.69;5092445;28;20039;-73
2022/04/24 10:35:14;;;;;;;7.95;5.40;;;;;;;24.75;28.67;100732.00;5092338;28;20541;-72
2022/04/24 10:37:39;;;;;;;9.85;5.00;;;;;;;24.89;27.64;100734.50;5092111;28;20098;-72
2022/04/24 10:40:12;;;;;;;6.47;5.30;;;;;;;24.49;29.25;100740.56;5074385;28;20176;-80
2022/04/24 10:42:38;;;;;;;8.27;5.15;;;;;;;25.10;28.55;100738.50;5092159;28;20024;-73
2022/04/24 10:45:14;;;;;;;10.02;5.50;;;;;;;25.40;27.07;100738.34;5092510;28;20031;-72
2022/04/24 10:47:48;;;;;;;8.77;4.90;;;;;;;25.68;26.58;100734.84;5092775;28;20028;-74
2022/04/24 10:50:14;;;;;;;7.05;5.28;;;;;;;24.44;28.90;100730.41;5092353;28;20088;-74
2022/04/24 10:52:43;;;;;;;7.95;4.85;;;;;;;24.57;28.55;100738.34;5092302;28;20112;-73
2022/04/24 10:55:12;;;;;;;7.10;5.28;;;;;;;24.87;28.48;100740.16;5092643;28;20408;-73
2022/04/24 10:57:42;;;;;;;6.80;5.20;;;;;;;24.74;28.29;100734.97;5092698;28;20029;-74
2022/04/24 11:00:22;;;;;;;7.80;5.80;;;;;;;23.92;29.66;100737.22;5092373;28;20369;-75
2022/04/24 11:02:49;;;;;;;5.88;5.28;;;;;;;24.90;28.47;100726.09;5092638;28;20095;-74
2022/04/24 11:05:20;;;;;;;7.07;5.53;;;;;;;24.74;29.60;100724.09;5074725;28;20477;-74
2022/04/24 11:07:46;;;;;;;7.97;5.68;;;;;;;24.75;28.01;100732.00;5092289;28;20032;-73
2022/04/24 11:10:12;;;;;;;9.27;4.97;;;;;;;25.16;28.09;100729.38;5077881;28;20147;-75
2022/04/24 11:12:39;;;;;;;7.65;5.22;;;;;;;25.46;27.45;100726.50;5095900;28;20082;-74
2022/04/24 11:15:10;;;;;;;12.10;6.40;;;;;;;25.82;27.75;100732.63;5096057;28;20032;-73
2022/04/24 11:17:36;;;;;;;7.20;5.25;;;;;;;25.89;26.81;100732.50;5096252;28;20035;-74
2022/04/24 11:20:10;;;;;;;11.10;5.30;;;;;;;24.70;29.11;100733.78;5095873;28;20028;-79
2022/04/24 11:22:48;;;;;;;12.38;5.28;;;;;;;25.13;26.55;100732.56;5096165;28;20103;-76